Time;durP1;ratioP1;P1;durP2;ratioP2;P2;SDS_P1;SDS_P2;PMS_P1;PMS_P2;Temp;Humidity;BMP_temperature;BMP_pressure;BME280_temperature;BME280_humidity;BME280_pressure;Samples;Min_cycle;Max_cycle;Signal;HPM_P1;HPM_P2
2020/12/09 00:01:55;;;;;;;20.08;11.30;;;0.50;64.30;;;;;;4920682;29;20039;-81
2020/12/09 00:04:21;;;;;;;20.23;11.55;;;0.50;64.30;;;;;;4937703;29;20464;-80
2020/12/09 00:06:49;;;;;;;21.65;13.65;;;0.50;64.30;;;;;;4936545;29;20039;-81
2020/12/09 00:09:18;;;;;;;21.17;11.80;;;0.50;64.20;;;;;;4920684;29;20032;-80
2020/12/09 00:11:44;;;;;;;19.73;12.18;;;0.50;64.20;;;;;;4920456;29;20048;-80
2020/12/09 00:14:11;;;;;;;20.50;12.70;;;0.50;64.30;;;;;;4920694;29;20050;-79
2020/12/09 00:16:38;;;;;;;25.08;12.65;;;0.50;64.20;;;;;;4937454;29;20094;-79
2020/12/09 00:19:05;;;;;;;23.85;12.80;;;0.50;64.20;;;;;;4937286;29;20512;-81
2020/12/09 00:21:32;;;;;;;20.67;11.93;;;0.50;64.20;;;;;;4920463;29;20047;-78
2020/12/09 00:23:58;;;;;;;25.77;13.85;;;0.50;64.20;;;;;;4920443;29;20558;-80
2020/12/09 00:26:25;;;;;;;19.98;11.00;;;0.50;64.20;;;;;;4937338;29;20061;-80
2020/12/09 00:28:52;;;;;;;20.98;11.80;;;0.50;64.20;;;;;;4937037;29;20122;-80
2020/12/09 00:31:22;;;;;;;22.27;12.57;;;0.50;64.10;;;;;;4937483;29;20511;-81
2020/12/09 00:33:50;;;;;;;24.70;13.30;;;0.50;64.10;;;;;;4937865;29;20039;-79
2020/12/09 00:36:17;;;;;;;20.85;12.38;;;0.50;64.20;;;;;;4936769;29;20055;-79
2020/12/09 00:38:51;;;;;;;23.65;13.55;;;0.50;64.20;;;;;;4937704;29;20111;-80
2020/12/09 00:41:22;;;;;;;23.90;13.00;;;0.50;64.20;;;;;;4925336;29;20039;-79
2020/12/09 00:43:48;;;;;;;24.95;13.50;;;0.50;64.00;;;;;;4939553;29;20558;-79
2020/12/09 00:46:23;;;;;;;23.65;14.13;;;0.50;64.00;;;;;;4936925;29;20040;-86
2020/12/09 00:48:54;;;;;;;26.17;13.85;;;0.50;64.00;;;;;;4937225;29;20062;-89
2020/12/09 00:51:25;;;;;;;26.55;14.15;;;0.50;64.00;;;;;;4936424;29;20131;-88
2020/12/09 00:53:53;;;;;;;29.50;14.73;;;0.50;64.10;;;;;;4938086;29;20043;-86
2020/12/09 00:56:24;;;;;;;27.58;14.95;;;0.50;64.00;;;;;;4919757;29;20061;-87
2020/12/09 00:58:51;;;;;;;27.58;14.45;;;0.50;64.00;;;;;;4921620;29;20059;-89
2020/12/09 01:01:16;;;;;;;25.50;14.73;;;0.50;64.00;;;;;;4938446;29;20427;-89
2020/12/09 01:03:50;;;;;;;31.25;15.80;;;0.40;64.00;;;;;;4920408;29;20487;-86
2020/12/09 01:06:16;;;;;;;28.60;14.30;;;0.50;64.00;;;;;;4920186;29;20035;-86
2020/12/09 01:08:43;;;;;;;31.02;16.02;;;0.40;63.90;;;;;;4937926;29;20054;-86
2020/12/09 01:11:09;;;;;;;29.33;16.17;;;0.40;63.90;;;;;;4936382;29;20396;-85
2020/12/09 01:13:35;;;;;;;32.08;14.93;;;0.40;64.50;;;;;;4936740;29;20043;-86
2020/12/09 01:16:01;;;;;;;28.92;16.35;;;0.40;63.80;;;;;;4936560;29;20094;-86
2020/12/09 01:18:27;;;;;;;28.98;15.07;;;0.50;63.80;;;;;;4936365;29;20051;-85
2020/12/09 01:20:53;;;;;;;30.98;15.63;;;0.40;63.70;;;;;;4936232;29;20046;-87
2020/12/09 01:23:18;;;;;;;32.55;15.68;;;0.40;63.60;;;;;;4920542;29;20104;-85
2020/12/09 01:25:44;;;;;;;31.38;15.90;;;0.40;63.70;;;;;;4937623;29;20036;-89
2020/12/09 01:28:10;;;;;;;29.92;15.90;;;0.40;63.70;;;;;;4937702;29;20038;-87
2020/12/09 01:30:36;;;;;;;30.27;15.75;;;0.40;63.60;;;;;;4936483;29;20046;-87
2020/12/09 01:33:02;;;;;;;29.58;15.98;;;0.40;63.70;;;;;;4938161;29;20055;-86
2020/12/09 01:35:29;;;;;;;29.95;16.17;;;0.40;63.60;;;;;;4922677;29;20054;-87
2020/12/09 01:37:54;;;;;;;29.48;16.67;;;0.30;63.60;;;;;;4939951;29;20038;-84
2020/12/09 01:40:21;;;;;;;25.75;14.85;;;0.30;63.60;;;;;;4938284;29;20569;-90
2020/12/09 01:42:49;;;;;;;31.15;16.27;;;0.30;63.50;;;;;;4939318;29;20031;-86
2020/12/09 01:45:16;;;;;;;30.33;16.50;;;0.30;63.50;;;;;;4936110;29;20096;-86
2020/12/09 01:47:44;;;;;;;28.77;15.18;;;0.30;63.40;;;;;;4937850;29;20047;-86
2020/12/09 01:50:12;;;;;;;29.70;15.63;;;0.30;63.50;;;;;;4920974;29;20089;-81
2020/12/09 01:52:39;;;;;;;35.20;16.88;;;0.30;63.40;;;;;;4935681;29;20031;-80
2020/12/09 01:55:05;;;;;;;34.50;17.00;;;0.30;63.50;;;;;;4945407;29;20036;-80
2020/12/09 01:57:31;;;;;;;28.63;15.55;;;0.30;63.40;;;;;;4935678;29;20075;-79
2020/12/09 01:59:57;;;;;;;22.65;15.32;;;0.30;63.40;;;;;;4935551;29;20055;-79
2020/12/09 02:02:23;;;;;;;29.10;15.57;;;0.30;63.40;;;;;;4935902;29;20065;-79
2020/12/09 02:04:49;;;;;;;26.83;15.20;;;0.30;63.40;;;;;;4918524;29;20107;-79
2020/12/09 02:07:15;;;;;;;30.23;16.75;;;0.30;63.40;;;;;;4935452;29;20043;-79
2020/12/09 02:09:40;;;;;;;27.50;14.90;;;0.30;63.30;;;;;;4935482;29;20035;-79
2020/12/09 02:12:06;;;;;;;28.83;15.98;;;0.30;63.40;;;;;;4935810;29;20094;-79
2020/12/09 02:14:33;;;;;;;32.45;16.30;;;0.30;63.30;;;;;;4918430;29;20039;-79
2020/12/09 02:16:59;;;;;;;29.70;15.55;;;0.30;63.30;;;;;;4918444;29;20039;-79
2020/12/09 02:19:26;;;;;;;31.75;15.77;;;0.30;63.30;;;;;;4935515;29;20075;-79
2020/12/09 02:21:53;;;;;;;28.95;15.25;;;0.30;63.20;;;;;;4917948;29;20530;-79
2020/12/09 02:24:19;;;;;;;30.63;16.00;;;0.30;63.30;;;;;;4935367;29;20082;-79
2020/12/09 02:26:47;;;;;;;27.10;14.95;;;0.30;63.30;;;;;;4935229;29;20067;-78
2020/12/09 02:29:14;;;;;;;24.88;13.90;;;0.30;63.30;;;;;;4935314;29;20044;-79
2020/12/09 02:31:41;;;;;;;27.70;15.55;;;0.30;63.30;;;;;;4935337;29;20035;-78
2020/12/09 02:34:07;;;;;;;30.73;15.23;;;0.20;63.20;;;;;;4935508;29;20039;-79
2020/12/09 02:36:34;;;;;;;26.17;15.75;;;0.30;63.20;;;;;;4935037;29;20048;-80
2020/12/09 02:39:03;;;;;;;27.33;14.23;;;0.30;63.20;;;;;;4934989;29;20086;-80
2020/12/09 02:41:28;;;;;;;28.90;15.35;;;0.30;63.30;;;;;;4918349;29;20515;-81
2020/12/09 02:43:54;;;;;;;28.45;15.20;;;0.30;63.20;;;;;;4918191;29;20035;-82
2020/12/09 02:46:20;;;;;;;24.30;13.88;;;0.20;63.20;;;;;;4918246;29;20035;-79
2020/12/09 02:48:46;;;;;;;24.52;14.15;;;0.20;63.10;;;;;;4935233;29;20036;-80
2020/12/09 02:51:12;;;;;;;24.88;15.00;;;0.30;63.20;;;;;;4935192;29;20079;-80
2020/12/09 02:53:38;;;;;;;27.00;15.27;;;0.30;63.10;;;;;;4935189;29;20040;-80
2020/12/09 02:56:04;;;;;;;25.92;14.77;;;0.20;63.10;;;;;;4935131;29;20047;-80
2020/12/09 02:58:30;;;;;;;24.30;14.18;;;0.20;63.10;;;;;;4935138;29;20036;-80
2020/12/09 03:00:56;;;;;;;24.73;14.85;;;0.20;63.10;;;;;;4935100;29;20032;-79
2020/12/09 03:03:22;;;;;;;30.80;15.63;;;0.20;63.10;;;;;;4934771;29;20031;-78
2020/12/09 03:05:49;;;;;;;25.63;13.63;;;0.20;63.00;;;;;;4934883;29;20504;-81
2020/12/09 03:08:15;;;;;;;27.77;14.60;;;0.20;63.00;;;;;;4927213;29;20082;-80
2020/12/09 03:10:41;;;;;;;29.08;14.57;;;0.20;63.00;;;;;;4933887;29;20407;-80
2020/12/09 03:13:07;;;;;;;26.85;14.45;;;0.20;62.90;;;;;;4934789;29;20131;-80
2020/12/09 03:15:33;;;;;;;26.65;14.63;;;0.20;63.00;;;;;;4934848;29;20130;-81
2020/12/09 03:17:59;;;;;;;25.83;14.15;;;0.20;63.50;;;;;;4934867;29;20036;-81
2020/12/09 03:20:25;;;;;;;24.67;13.73;;;0.20;62.90;;;;;;4934973;29;20094;-81
2020/12/09 03:22:51;;;;;;;24.02;13.88;;;0.20;62.90;;;;;;4934914;29;20048;-82
2020/12/09 03:25:17;;;;;;;24.58;13.63;;;0.20;62.80;;;;;;4918370;29;20046;-80
2020/12/09 03:27:43;;;;;;;25.77;14.75;;;0.20;62.90;;;;;;4934866;29;20495;-83
2020/12/09 03:30:09;;;;;;;24.13;13.55;;;0.20;62.90;;;;;;4935412;29;20143;-83
2020/12/09 03:32:36;;;;;;;26.15;13.73;;;0.20;62.80;;;;;;4935340;29;20571;-81
2020/12/09 03:35:02;;;;;;;25.33;13.93;;;0.20;62.70;;;;;;4937164;29;20067;-82
2020/12/09 03:37:28;;;;;;;25.40;14.02;;;0.20;62.80;;;;;;4937779;29;20046;-81
2020/12/09 03:39:54;;;;;;;25.10;14.13;;;0.20;62.80;;;;;;4938096;29;20399;-78
2020/12/09 03:42:19;;;;;;;25.58;13.32;;;0.20;62.80;;;;;;4937918;29;20511;-80
2020/12/09 03:44:45;;;;;;;25.55;12.43;;;0.20;62.80;;;;;;4920946;29;20508;-79
2020/12/09 03:47:11;;;;;;;24.10;13.63;;;0.20;62.70;;;;;;4938157;29;20044;-80
2020/12/09 03:49:37;;;;;;;24.27;13.75;;;0.20;62.70;;;;;;4938034;29;20391;-80
2020/12/09 03:52:03;;;;;;;25.98;14.25;;;0.20;62.60;;;;;;4937659;29;20078;-81
2020/12/09 03:54:29;;;;;;;25.27;13.95;;;0.20;62.70;;;;;;4938521;29;20035;-80
2020/12/09 03:56:55;;;;;;;22.13;14.00;;;0.10;62.60;;;;;;4920986;29;20047;-80
2020/12/09 03:59:20;;;;;;;22.83;12.25;;;0.20;62.70;;;;;;4937542;29;20052;-80
2020/12/09 04:01:46;;;;;;;25.48;13.57;;;0.10;62.50;;;;;;4938730;29;20411;-86
2020/12/09 04:04:12;;;;;;;24.75;13.82;;;0.10;62.60;;;;;;4938048;29;20039;-83
2020/12/09 04:06:38;;;;;;;26.00;13.88;;;0.10;62.60;;;;;;4937764;29;20043;-82
2020/12/09 04:09:04;;;;;;;26.73;13.90;;;0.10;62.50;;;;;;4937563;29;20463;-90
2020/12/09 04:11:31;;;;;;;29.52;14.35;;;0.10;62.50;;;;;;4937884;29;20044;-81
2020/12/09 04:13:58;;;;;;;25.55;14.25;;;0.10;62.50;;;;;;4937790;29;20045;-82
2020/12/09 04:16:24;;;;;;;28.38;14.30;;;0.10;62.60;;;;;;4937167;29;20126;-82
2020/12/09 04:18:50;;;;;;;24.35;15.48;;;0.10;62.60;;;;;;4937570;29;20031;-81
2020/12/09 04:21:16;;;;;;;29.63;15.35;;;0.10;62.50;;;;;;4945436;29;20079;-82
2020/12/09 04:23:42;;;;;;;24.80;13.80;;;0.10;62.40;;;;;;4937371;29;20070;-81
2020/12/09 04:26:09;;;;;;;23.67;13.35;;;0.10;62.40;;;;;;4937426;29;20102;-81
2020/12/09 04:28:35;;;;;;;25.40;14.07;;;0.10;62.40;;;;;;4937229;29;20039;-80
2020/12/09 04:31:01;;;;;;;27.70;14.05;;;0.10;62.40;;;;;;4920427;29;20082;-81
2020/12/09 04:33:28;;;;;;;24.17;13.25;;;0.10;62.30;;;;;;4936883;29;20043;-80
2020/12/09 04:35:55;;;;;;;28.05;14.77;;;0.10;62.30;;;;;;4937723;29;20051;-82
2020/12/09 04:38:22;;;;;;;23.77;14.07;;;0.10;62.30;;;;;;4936937;29;20059;-81
2020/12/09 04:40:48;;;;;;;28.08;13.88;;;0.10;62.30;;;;;;4936767;29;20534;-81
2020/12/09 04:43:14;;;;;;;25.10;13.20;;;0.10;62.40;;;;;;4920204;29;20039;-80
2020/12/09 04:45:41;;;;;;;24.98;13.32;;;0.10;62.30;;;;;;4919852;29;20043;-80
2020/12/09 04:48:12;;;;;;;29.55;13.25;;;0.10;62.40;;;;;;4936725;29;20036;-84
2020/12/09 04:51:06;;;;;;;24.65;13.07;;;0.10;62.40;;;;;;4919489;29;20047;-84
2020/12/09 04:53:33;;;;;;;24.15;14.27;;;0.00;62.30;;;;;;4934850;29;20099;-84
2020/12/09 04:56:00;;;;;;;23.77;13.55;;;0.10;62.40;;;;;;4919301;29;20047;-83
2020/12/09 04:58:39;;;;;;;23.83;13.48;;;0.00;62.30;;;;;;4936525;29;20483;-83
2020/12/09 05:01:08;;;;;;;22.25;12.82;;;0.10;62.40;;;;;;4936626;29;20043;-87
2020/12/09 05:03:45;;;;;;;21.67;12.68;;;0.00;62.20;;;;;;4936594;29;20044;-83
2020/12/09 05:06:15;;;;;;;26.40;13.45;;;0.00;62.20;;;;;;4904166;29;20115;-84
2020/12/09 05:08:56;;;;;;;26.98;14.13;;;0.10;62.40;;;;;;4921066;29;20410;-84
2020/12/09 05:11:27;;;;;;;23.63;12.90;;;0.00;62.30;;;;;;4936256;29;20090;-83
2020/12/09 05:13:58;;;;;;;24.85;13.95;;;0.00;62.30;;;;;;4935278;29;20036;-85
2020/12/09 05:16:26;;;;;;;24.02;13.57;;;0.00;62.20;;;;;;4919417;29;20059;-88
2020/12/09 05:18:56;;;;;;;25.88;13.57;;;0.00;62.30;;;;;;4936465;29;20095;-87
2020/12/09 05:21:25;;;;;;;22.15;12.80;;;0.10;62.30;;;;;;4923153;29;20118;-86
2020/12/09 05:23:52;;;;;;;27.25;13.55;;;0.00;62.20;;;;;;4937212;29;20122;-84
2020/12/09 05:26:24;;;;;;;24.83;13.23;;;0.10;62.30;;;;;;4919082;29;20411;-84
2020/12/09 05:29:07;;;;;;;25.55;13.25;;;0.10;62.20;;;;;;4918978;29;20034;-85
2020/12/09 05:31:34;;;;;;;28.17;13.43;;;0.10;62.00;;;;;;4936086;29;20042;-86
2020/12/09 05:34:01;;;;;;;22.95;12.85;;;0.10;62.10;;;;;;4942279;29;20047;-84
2020/12/09 05:36:27;;;;;;;23.08;12.88;;;0.00;62.10;;;;;;4935070;29;20122;-87
2020/12/09 05:39:06;;;;;;;24.00;13.23;;;0.10;62.10;;;;;;4935919;29;20459;-86
2020/12/09 05:41:33;;;;;;;23.90;13.02;;;0.10;62.00;;;;;;4935866;29;20039;-84
2020/12/09 05:44:01;;;;;;;23.80;12.70;;;0.10;62.00;;;;;;4936079;29;20039;-85
2020/12/09 05:46:28;;;;;;;26.60;13.43;;;0.10;62.00;;;;;;4935691;29;20054;-85
2020/12/09 05:48:54;;;;;;;24.95;13.32;;;0.10;62.00;;;;;;4918790;29;20052;-84
2020/12/09 05:51:20;;;;;;;22.60;12.55;;;0.10;62.00;;;;;;4934789;29;20456;-84
2020/12/09 05:53:47;;;;;;;23.08;13.40;;;0.10;62.00;;;;;;4918934;29;20036;-85
2020/12/09 05:56:16;;;;;;;22.65;13.05;;;0.10;61.90;;;;;;4918232;29;20076;-84
2020/12/09 05:58:51;;;;;;;23.70;14.23;;;0.10;62.10;;;;;;4936062;29;20113;-85
2020/12/09 06:01:20;;;;;;;23.67;13.60;;;0.10;61.90;;;;;;4935527;29;20035;-85
2020/12/09 06:03:52;;;;;;;26.33;12.95;;;0.10;61.90;;;;;;4935499;29;20392;-84
2020/12/09 06:06:22;;;;;;;21.48;13.10;;;0.10;61.90;;;;;;4936513;29;20039;-85
2020/12/09 06:08:53;;;;;;;24.20;13.00;;;0.10;61.80;;;;;;4936723;29;20074;-85
2020/12/09 06:11:31;;;;;;;28.05;14.40;;;0.10;61.70;;;;;;4935929;29;20031;-86
2020/12/09 06:13:57;;;;;;;22.00;11.82;;;0.10;61.70;;;;;;4936094;29;20042;-84
2020/12/09 06:16:24;;;;;;;27.40;14.23;;;0.20;61.70;;;;;;4935664;29;20419;-86
2020/12/09 06:18:52;;;;;;;23.52;12.90;;;0.10;61.60;;;;;;4935060;29;20403;-86
2020/12/09 06:21:19;;;;;;;23.60;12.68;;;0.20;61.70;;;;;;4936951;29;20027;-86
2020/12/09 06:23:48;;;;;;;26.27;12.80;;;0.20;61.50;;;;;;4936676;29;20039;-84
2020/12/09 06:26:15;;;;;;;23.40;12.90;;;0.20;61.50;;;;;;4935847;29;20040;-86
2020/12/09 06:28:47;;;;;;;25.75;13.98;;;0.20;61.40;;;;;;4935389;29;20500;-86
2020/12/09 06:31:18;;;;;;;23.70;13.30;;;0.20;61.40;;;;;;4935777;29;20043;-84
2020/12/09 06:33:49;;;;;;;25.38;14.82;;;0.20;61.40;;;;;;4935413;29;20035;-85
2020/12/09 06:36:24;;;;;;;21.27;13.35;;;0.20;61.20;;;;;;4936401;29;20064;-85
2020/12/09 06:39:08;;;;;;;21.83;13.20;;;0.20;61.20;;;;;;4902929;29;20562;-84
2020/12/09 06:41:36;;;;;;;24.10;13.98;;;0.20;61.20;;;;;;4922225;29;20039;-86
2020/12/09 06:44:14;;;;;;;22.92;12.15;;;0.20;61.60;;;;;;4939727;29;20049;-86
2020/12/09 06:46:51;;;;;;;21.80;12.77;;;0.20;61.00;;;;;;4927105;29;20039;-85
2020/12/09 06:49:29;;;;;;;25.05;13.70;;;0.20;61.00;;;;;;4943139;29;20043;-85
2020/12/09 06:52:01;;;;;;;24.38;13.85;;;0.20;61.00;;;;;;4942183;29;20032;-85
2020/12/09 06:54:39;;;;;;;26.63;14.18;;;0.20;60.90;;;;;;4941205;29;20048;-84
2020/12/09 06:57:13;;;;;;;23.60;13.63;;;0.30;60.90;;;;;;4941859;29;20074;-87
2020/12/09 06:59:39;;;;;;;22.75;13.45;;;0.30;60.80;;;;;;4940702;29;20083;-87
2020/12/09 07:02:06;;;;;;;22.42;13.10;;;0.30;60.80;;;;;;4939086;29;20046;-85
2020/12/09 07:04:54;;;;;;;20.08;12.68;;;0.30;60.80;;;;;;4937433;29;20503;-87
2020/12/09 07:07:34;;;;;;;25.60;14.30;;;0.30;60.60;;;;;;4936187;29;20571;-87
2020/12/09 07:10:14;;;;;;;;;;;;;;;;;;;;;
2020/12/09 07:13:00;;;;;;;22.17;12.60;;;0.30;60.60;;;;;;4924749;29;20078;-85
2020/12/09 07:15:27;;;;;;;23.98;12.93;;;0.30;60.50;;;;;;4938762;29;20126;-86
2020/12/09 07:17:54;;;;;;;21.25;11.18;;;0.40;60.60;;;;;;4938892;29;20500;-86
2020/12/09 07:20:20;;;;;;;20.15;12.35;;;0.30;60.50;;;;;;4939576;29;20135;-85
2020/12/09 07:22:47;;;;;;;26.42;12.98;;;0.40;60.50;;;;;;4938920;29;20044;-87
2020/12/09 07:25:13;;;;;;;21.85;12.10;;;0.40;60.50;;;;;;4940191;29;20040;-90
2020/12/09 07:27:39;;;;;;;24.98;13.65;;;0.40;60.40;;;;;;4941203;29;20096;-88
2020/12/09 07:30:09;;;;;;;23.02;12.98;;;0.40;60.50;;;;;;4939452;29;20067;-88
2020/12/09 07:32:36;;;;;;;25.30;13.13;;;0.40;60.40;;;;;;4943621;29;20089;-85
2020/12/09 07:35:11;;;;;;;21.83;13.05;;;0.50;60.40;;;;;;4939589;29;20051;-88
2020/12/09 07:37:42;;;;;;;25.67;13.33;;;0.50;60.30;;;;;;4940427;29;20058;-89
2020/12/09 07:40:29;;;;;;;24.10;13.35;;;0.50;60.30;;;;;;4940049;29;20040;-88
2020/12/09 07:42:59;;;;;;;23.70;13.98;;;0.40;60.20;;;;;;4922308;29;20133;-88
2020/12/09 07:45:25;;;;;;;24.17;13.88;;;0.50;60.30;;;;;;4943816;29;20071;-88
2020/12/09 07:47:58;;;;;;;23.55;13.38;;;0.60;60.30;;;;;;4942798;29;20035;-82
2020/12/09 07:50:25;;;;;;;23.48;12.27;;;0.60;60.10;;;;;;4938430;29;20047;-85
2020/12/09 07:52:51;;;;;;;26.17;13.18;;;0.70;60.00;;;;;;4938062;29;20043;-85
2020/12/09 07:55:18;;;;;;;24.45;12.05;;;0.70;60.00;;;;;;4938082;29;20515;-86
2020/12/09 07:57:44;;;;;;;23.40;12.55;;;0.80;59.90;;;;;;4937667;29;20059;-85
2020/12/09 08:00:13;;;;;;;26.25;13.65;;;0.80;60.40;;;;;;4950552;29;20047;-82
2020/12/09 08:02:41;;;;;;;26.73;14.73;;;0.80;60.00;;;;;;4920797;29;20035;-85
2020/12/09 08:05:17;;;;;;;24.30;13.95;;;0.80;59.80;;;;;;4937487;29;20048;-80
2020/12/09 08:07:56;;;;;;;23.23;13.48;;;0.90;59.40;;;;;;4938376;29;20051;-81
2020/12/09 08:10:25;;;;;;;21.35;12.80;;;0.90;58.90;;;;;;4920236;29;20047;-82
2020/12/09 08:13:05;;;;;;;24.05;13.95;;;1.00;58.50;;;;;;4937843;29;20035;-80
2020/12/09 08:15:31;;;;;;;25.27;13.18;;;1.00;58.20;;;;;;4937544;29;20052;-82
2020/12/09 08:17:58;;;;;;;23.02;13.45;;;1.00;57.90;;;;;;4937233;29;20036;-80
2020/12/09 08:20:24;;;;;;;27.13;14.23;;;1.00;58.10;;;;;;4937084;29;20051;-82
2020/12/09 08:22:59;;;;;;;23.48;13.60;;;1.00;57.90;;;;;;4920849;29;20059;-83
2020/12/09 08:25:47;;;;;;;24.23;13.27;;;1.00;57.80;;;;;;4937847;29;20028;-81
2020/12/09 08:28:14;;;;;;;20.40;13.13;;;1.00;57.60;;;;;;4920577;29;20044;-81
2020/12/09 08:30:40;;;;;;;19.10;11.88;;;1.00;57.40;;;;;;4937632;29;20139;-84
2020/12/09 08:33:16;;;;;;;17.15;10.90;;;1.00;57.30;;;;;;4920445;29;20535;-82
2020/12/09 08:35:48;;;;;;;23.08;11.45;;;1.00;57.20;;;;;;4936945;29;20082;-81
2020/12/09 08:38:46;;;;;;;19.35;11.55;;;1.00;57.10;;;;;;4920473;29;20043;-82
2020/12/09 08:41:15;;;;;;;19.85;12.02;;;1.00;56.90;;;;;;4937643;29;20076;-80
2020/12/09 08:43:42;;;;;;;19.10;12.43;;;1.10;56.90;;;;;;4937155;29;20047;-82
2020/12/09 08:46:10;;;;;;;24.00;12.65;;;1.00;56.80;;;;;;4937181;29;20047;-81
2020/12/09 08:48:38;;;;;;;25.77;13.80;;;1.00;56.80;;;;;;4937077;29;20035;-82
2020/12/09 08:51:05;;;;;;;21.42;12.38;;;1.10;56.90;;;;;;4919823;29;20035;-81
2020/12/09 08:53:31;;;;;;;28.80;14.65;;;1.00;56.80;;;;;;4936942;29;20051;-82
2020/12/09 08:55:57;;;;;;;23.27;13.20;;;1.00;56.80;;;;;;4936865;29;20491;-80
2020/12/09 08:58:23;;;;;;;26.45;13.43;;;1.10;56.80;;;;;;4919565;29;20039;-80
2020/12/09 09:00:50;;;;;;;25.75;13.38;;;1.10;56.80;;;;;;4936928;29;20038;-79
2020/12/09 09:03:19;;;;;;;23.73;12.48;;;1.10;56.90;;;;;;4919334;29;20043;-80
2020/12/09 09:05:47;;;;;;;22.17;12.68;;;1.00;57.00;;;;;;4936691;29;20480;-79
2020/12/09 09:08:14;;;;;;;19.92;11.65;;;1.00;57.30;;;;;;4936932;29;20094;-81
2020/12/09 09:10:41;;;;;;;23.52;13.40;;;1.00;57.60;;;;;;4919831;29;20044;-79
2020/12/09 09:13:08;;;;;;;20.48;11.77;;;1.10;57.70;;;;;;4944179;29;20054;-80
2020/12/09 09:15:35;;;;;;;19.42;12.25;;;1.10;57.70;;;;;;4936650;29;20046;-79
2020/12/09 09:18:05;;;;;;;19.77;11.68;;;1.10;57.80;;;;;;4936168;29;20086;-80
2020/12/09 09:20:32;;;;;;;19.67;11.30;;;1.20;57.90;;;;;;4936115;29;20039;-82
2020/12/09 09:22:58;;;;;;;20.92;12.35;;;1.20;57.90;;;;;;4919638;29;20038;-80
2020/12/09 09:25:24;;;;;;;21.13;11.00;;;1.20;58.00;;;;;;4936144;29;20047;-79
2020/12/09 09:27:51;;;;;;;20.60;11.68;;;1.20;58.10;;;;;;4936539;29;20039;-79
2020/12/09 09:30:19;;;;;;;19.50;10.50;;;1.20;58.20;;;;;;4935079;29;20036;-77
2020/12/09 09:32:45;;;;;;;23.75;11.93;;;1.20;58.20;;;;;;4918345;29;20035;-81
2020/12/09 09:35:11;;;;;;;23.05;12.48;;;1.20;58.30;;;;;;4935649;29;20504;-80
2020/12/09 09:37:39;;;;;;;22.23;11.68;;;1.30;58.40;;;;;;4918908;29;20067;-78
2020/12/09 09:40:05;;;;;;;25.85;12.70;;;1.30;58.50;;;;;;4936233;29;20110;-80
2020/12/09 09:42:31;;;;;;;19.45;11.13;;;1.30;58.50;;;;;;4936565;29;20067;-81
2020/12/09 09:44:56;;;;;;;21.15;11.30;;;1.30;58.50;;;;;;4935756;29;20563;-79
2020/12/09 09:47:22;;;;;;;20.98;12.50;;;1.30;58.60;;;;;;4935822;29;20054;-79
2020/12/09 09:49:48;;;;;;;23.75;12.55;;;1.30;58.70;;;;;;4935626;29;20031;-79
2020/12/09 09:52:14;;;;;;;20.25;11.77;;;1.30;58.80;;;;;;4935894;29;20051;-79
2020/12/09 09:54:40;;;;;;;21.15;11.43;;;1.30;58.80;;;;;;4935822;29;20059;-79
2020/12/09 09:57:06;;;;;;;25.55;12.55;;;1.30;58.90;;;;;;4935768;29;20040;-80
2020/12/09 09:59:32;;;;;;;23.40;12.00;;;1.30;59.00;;;;;;4935787;29;20138;-79
2020/12/09 10:01:58;;;;;;;28.38;12.40;;;1.30;59.10;;;;;;4918512;29;20032;-79
2020/12/09 10:04:24;;;;;;;26.42;14.05;;;1.30;59.20;;;;;;4935501;29;20043;-80
2020/12/09 10:06:50;;;;;;;25.60;12.35;;;1.30;59.40;;;;;;4918591;29;20039;-80
2020/12/09 10:09:17;;;;;;;25.75;13.05;;;1.30;59.40;;;;;;4935892;29;20043;-80
2020/12/09 10:11:44;;;;;;;22.60;11.82;;;1.30;59.50;;;;;;4935727;29;20123;-80
2020/12/09 10:14:10;;;;;;;29.95;14.57;;;1.40;59.40;;;;;;4918616;29;20065;-78
2020/12/09 10:16:38;;;;;;;23.52;12.75;;;1.40;59.70;;;;;;4936363;29;20546;-80
2020/12/09 10:19:05;;;;;;;25.73;12.77;;;1.30;59.70;;;;;;4933856;29;20102;-80
2020/12/09 10:21:33;;;;;;;28.05;13.68;;;1.30;59.80;;;;;;4935158;29;20064;-78
2020/12/09 10:24:00;;;;;;;27.65;13.68;;;1.30;59.90;;;;;;4938922;29;20045;-79
2020/12/09 10:26:32;;;;;;;26.92;14.02;;;1.30;60.00;;;;;;4938183;29;20411;-79
2020/12/09 10:29:02;;;;;;;24.02;12.25;;;1.40;60.00;;;;;;4935829;29;20114;-79
2020/12/09 10:31:48;;;;;;;24.15;13.10;;;1.40;60.00;;;;;;4918784;29;20555;-78
2020/12/09 10:34:19;;;;;;;25.42;12.75;;;1.40;60.20;;;;;;4933949;29;20495;-79
2020/12/09 10:36:50;;;;;;;25.95;13.35;;;1.40;60.20;;;;;;4935257;29;20044;-78
2020/12/09 10:39:18;;;;;;;27.27;14.80;;;1.40;60.30;;;;;;4935088;29;20035;-79
2020/12/09 10:41:45;;;;;;;25.15;12.75;;;1.40;60.30;;;;;;4935021;29;20084;-79
2020/12/09 10:44:11;;;;;;;27.58;14.00;;;1.40;60.40;;;;;;4921252;29;20031;-79
2020/12/09 10:46:38;;;;;;;30.58;14.20;;;1.40;60.40;;;;;;4939121;29;20511;-80
2020/12/09 10:49:06;;;;;;;29.60;14.73;;;1.40;60.50;;;;;;4937757;29;20511;-81
2020/12/09 10:51:32;;;;;;;28.02;14.73;;;1.40;60.70;;;;;;4939496;29;20031;-88
2020/12/09 10:53:59;;;;;;;25.63;13.82;;;1.40;60.70;;;;;;4939012;29;20035;-84
2020/12/09 10:56:31;;;;;;;32.65;14.30;;;1.40;60.70;;;;;;4921835;29;20557;-82
2020/12/09 10:58:58;;;;;;;28.52;14.50;;;1.40;60.70;;;;;;4938826;29;20098;-82
2020/12/09 11:01:25;;;;;;;31.80;15.25;;;1.50;60.80;;;;;;4939512;29;20040;-82
2020/12/09 11:03:55;;;;;;;32.70;14.32;;;1.40;60.70;;;;;;4938598;29;20059;-85
2020/12/09 11:06:35;;;;;;;33.33;16.52;;;1.40;60.90;;;;;;4939004;29;20040;-81
2020/12/09 11:09:03;;;;;;;29.08;15.32;;;1.50;61.00;;;;;;4939562;29;20118;-80
2020/12/09 11:11:29;;;;;;;29.67;14.18;;;1.40;61.00;;;;;;4921583;29;20628;-85
2020/12/09 11:13:55;;;;;;;31.55;14.23;;;1.40;61.10;;;;;;4921909;29;20122;-86
2020/12/09 11:16:21;;;;;;;27.48;15.45;;;1.40;61.20;;;;;;4938551;29;20043;-83
2020/12/09 11:18:49;;;;;;;34.53;15.27;;;1.50;61.20;;;;;;4938941;29;20055;-83
2020/12/09 11:21:18;;;;;;;33.28;14.32;;;1.40;61.10;;;;;;4938888;29;20124;-83
2020/12/09 11:23:47;;;;;;;34.28;15.27;;;1.50;61.30;;;;;;4938604;29;20095;-82
2020/12/09 11:26:19;;;;;;;32.90;15.15;;;1.50;61.40;;;;;;4939160;29;20039;-85
2020/12/09 11:28:45;;;;;;;27.25;15.55;;;1.40;61.60;;;;;;4937644;29;20039;-86
2020/12/09 11:31:11;;;;;;;28.10;14.80;;;1.40;61.60;;;;;;4938444;29;20407;-85
2020/12/09 11:33:37;;;;;;;32.33;14.95;;;1.40;61.30;;;;;;4921153;29;20035;-86
2020/12/09 11:36:04;;;;;;;36.10;15.45;;;1.30;61.30;;;;;;4911017;29;20036;-86
2020/12/09 11:38:30;;;;;;;30.48;15.38;;;1.40;61.10;;;;;;4941624;29;20075;-86
2020/12/09 11:40:56;;;;;;;29.45;14.98;;;1.30;61.20;;;;;;4938907;29;20514;-84
2020/12/09 11:43:25;;;;;;;35.40;16.02;;;1.30;61.10;;;;;;4938740;29;20040;-86
2020/12/09 11:45:51;;;;;;;32.60;16.08;;;1.20;61.30;;;;;;4921610;29;20035;-85
2020/12/09 11:48:17;;;;;;;34.10;16.25;;;1.20;61.60;;;;;;4938292;29;20487;-85
2020/12/09 11:50:43;;;;;;;29.92;15.48;;;1.20;61.60;;;;;;4938225;29;20046;-86
2020/12/09 11:53:09;;;;;;;26.55;13.85;;;1.20;61.70;;;;;;4938125;29;20506;-85
2020/12/09 11:55:35;;;;;;;31.58;14.18;;;1.20;61.70;;;;;;4938092;29;20044;-85
2020/12/09 11:58:02;;;;;;;30.50;15.27;;;1.10;61.50;;;;;;4936884;29;20046;-85
2020/12/09 12:00:28;;;;;;;28.48;15.07;;;1.10;61.60;;;;;;4938171;29;20500;-87
2020/12/09 12:02:55;;;;;;;27.58;13.77;;;1.10;61.60;;;;;;4938124;29;20549;-84
2020/12/09 12:05:23;;;;;;;29.67;14.45;;;1.10;61.80;;;;;;4937720;29;20472;-85
2020/12/09 12:07:50;;;;;;;27.75;14.20;;;1.10;61.80;;;;;;4921219;29;20110;-86
2020/12/09 12:10:16;;;;;;;24.25;13.52;;;1.10;61.70;;;;;;4938124;29;20048;-85
2020/12/09 12:12:42;;;;;;;27.25;14.55;;;1.10;61.60;;;;;;4937804;29;20044;-86
2020/12/09 12:15:08;;;;;;;25.40;13.60;;;1.10;61.60;;;;;;4937815;29;20403;-84
2020/12/09 12:17:34;;;;;;;28.60;13.18;;;1.10;61.70;;;;;;4937468;29;20083;-84
2020/12/09 12:20:00;;;;;;;26.30;13.23;;;1.10;61.70;;;;;;4937852;29;20064;-84
2020/12/09 12:22:26;;;;;;;28.70;13.00;;;1.10;61.90;;;;;;4937579;29;20415;-84
2020/12/09 12:24:52;;;;;;;22.52;13.05;;;1.10;62.00;;;;;;4937468;29;20506;-84
2020/12/09 12:27:18;;;;;;;23.95;12.85;;;1.00;62.00;;;;;;4938725;29;20476;-83
2020/12/09 12:29:44;;;;;;;24.15;13.80;;;1.00;62.20;;;;;;4943676;29;20054;-84
2020/12/09 12:32:10;;;;;;;19.85;13.50;;;1.00;62.10;;;;;;4921989;29;20039;-84
2020/12/09 12:34:39;;;;;;;20.42;12.20;;;1.00;62.20;;;;;;4937538;29;20043;-86
2020/12/09 12:37:05;;;;;;;21.60;12.02;;;1.00;62.20;;;;;;4937375;29;20044;-85
2020/12/09 12:39:31;;;;;;;23.92;13.68;;;0.90;62.50;;;;;;4938045;29;20043;-84
2020/12/09 12:41:57;;;;;;;25.27;12.70;;;0.90;62.50;;;;;;4938996;29;20028;-84
2020/12/09 12:44:23;;;;;;;24.23;12.13;;;0.90;62.50;;;;;;4937349;29;20066;-84